Tiempo atmosférico en la estación meteorológica de Rojales, Alacant/Alicante (31 m.)



Fecha
DESCASC
Temp. máxima en grados centígrados (hora)
DESCASC
Temp. mínima en grados centígrados (hora)
DESCASC
Temp. media en grados centígrados
DESCASC
Racha de viento máxima en m/sg (hora)
DESCASC
Velocidad máxima media en intervalos de 10 minutos(hora)
DESCASC
Precipitaciones diarias en mm
DESCASC
Precipitaciones de 00:00 a 06:00 en mm
DESCASC
Precipitaciones de 06:00 a 12:00 en mm
DESCASC
Precipitaciones de 12:00 a 18:00 en mm
DESCASC
Precipitaciones de 18:00 a 24:00 en mm
DESCASC
27-01-2020 17.6 (15:30) 5.6 (08:20) 11.6 7.5 (19:30) 4.72 (19:30) 0 0 0 0 0
26-01-2020 18.3 (15:40) 7.6 (06:30) 12.9 11.11 (13:40) 7.22 (13:40) 0 0 0 0 0
25-01-2020 14.8 (15:40) 9 (00:00) 11.9 7.22 (12:20) 3.61 (12:10) 0 0 0 0 0
24-01-2020 15.3 (15:00) 8.1 (00:00) 11.7 8.06 (13:50) 5 (15:00) 0 0 0 0 0
23-01-2020 15.8 (12:50) 7 (00:00) 11.4 6.67 (17:00) 4.17 (17:10) 0 0 0 0 0
22-01-2020 15.7 (14:00) 7.7 (00:00) 11.7 7.5 (13:30) 4.72 (13:30) 0.2 0.2 0 0 0
21-01-2020 13.4 (10:40) 8 (00:00) 10.7 11.11 (10:10) 5.83 (03:20) 22.4 12.6 9.6 0 0.2
20-01-2020 12.9 (14:20) 7.3 (00:00) 10.1 17.78 (06:40) 11.11 (07:10) 12.4 2.8 3.6 4 2
19-01-2020 13 (11:50) 6.6 (00:00) 9.8 14.17 (18:40) 8.89 (18:40) 10.2 0 0 1 9.2
18-01-2020 16.3 (15:50) 8.6 (00:00) 12.4 7.22 (00:40) 4.44 (00:10) 0 0 0 0 0
17-01-2020 20.6 (15:40) 4.3 (00:00) 12.5 8.89 (14:00) 5.83 (16:10) 0 0 0 0 0
16-01-2020 18.9 (15:10) 5.4 (00:00) 12.1 6.39 (19:00) 3.89 (18:10) 0 0 0 0 0
15-01-2020 18 (15:40) 3.3 (00:00) 10.6 5.83 (16:40) 3.89 (16:50) 0 0 0 0 0
14-01-2020 16.9 (15:40) 2.1 (00:00) 9.5 6.94 (11:10) 4.17 (10:40) 0 0 0 0 0
13-01-2020 15.8 (14:50) 2 (00:00) 8.9 6.94 (19:30) 4.17 (19:30) 0 0 0 0 0
12-01-2020 15.4 (14:10) 3.4 (00:00) 9.4 7.78 (16:00) 4.72 (16:00) 0 0 0 0 0
11-01-2020 15.9 (13:50) 7.6 (00:00) 11.7 6.67 (16:40) 3.89 (16:40) 0.2 0 0.2 0 0
10-01-2020 16.4 (15:20) 5.6 (00:00) 11 9.72 (18:40) 5.28 (18:40) 0 0 0 0 0
09-01-2020 16.2 (14:40) 7.6 (00:00) 11.9 5 (16:20) 2.78 (11:20) 0 0 0 0 0
08-01-2020 14.6 (15:30) 2.5 (00:00) 8.6 5 (14:20) 3.06 (14:40) 0.2 0.2 0 0 0
07-01-2020 16.1 (15:40) 3.3 (00:00) 9.7 5 (17:20) 3.33 (17:20) 0 0 0 0 0
06-01-2020 15.8 (15:00) 2.3 (00:00) 9.1 5 (20:10) 2.78 (11:50) 0 0 0 0 0
05-01-2020 16.7 (15:40) 3.8 (00:00) 10.3 5.56 (11:00) 3.33 (11:00) 0 0 0 0 0
04-01-2020 15.8 (15:40) 7.3 (00:00) 11.6 6.11 (10:40) 3.89 (11:00) 0 0 0 0 0
03-01-2020 17.5 (15:40) 4.7 (00:00) 11.1 4.72 (10:00) 2.78 (10:30) 0 0 0 0 0
02-01-2020 13.2 (13:20) 7.5 (00:00) 10.3 5 (11:20) 3.33 (11:40) 0 0 0 0 0
01-01-2020 15.2 (15:20) 4.2 (00:00) 9.7 5.28 (10:50) 3.61 (11:20) 0.2 0 0.2 0 0
31-12-2019 15.8 (14:50) 5.3 (00:00) 10.6 5.28 (12:20) 3.61 (12:10) 0 0 0 0 0
30-12-2019 15.9 (14:30) 7.8 (00:00) 11.8 -- (--) -- (--) 0 0 0 0 0

Gráficas

Temp. máximas Temp. mínimas Temp. medias Precipitaciones Rachas de viento máximas Velocidades máximas media en intervalos de 10 minutos

Datos horarios

Fecha y hora oficial Temperatura (ºC) Velocidad del viento (km/h) Dirección del viento Racha (km/h) Dirección de racha Precipitación (mm) Presión (hPa) Tendencia (hPa) Humedad (%)
2020-01-28 23:00:00 16.1 8 Oeste 13 Oeste 0 -- -- 62
2020-01-28 22:00:00 16.7 4 Noroeste 20 Oeste 0 -- -- 61
2020-01-28 21:00:00 17.7 13 Oeste 19 Oeste 0 -- -- 56
2020-01-28 20:00:00 18.1 5 Sudoeste 21 Oeste 0 -- -- 55
2020-01-28 19:00:00 17.6 6 Sudoeste 13 Noroeste 0 -- -- 61
2020-01-28 18:00:00 18.5 7 Sudoeste 17 Sur 0 -- -- 62
2020-01-28 17:00:00 20.6 7 Sur 15 Sur 0 -- -- 56
2020-01-28 16:00:00 21.4 8 Sudoeste 22 Sudoeste 0 -- -- 49
2020-01-28 15:00:00 20.8 10 Sudoeste 27 Sudoeste 0 -- -- 50
2020-01-28 14:00:00 20.2 11 Sudoeste 23 Sudoeste 0 -- -- 49
2020-01-28 13:00:00 18.7 14 Oeste 30 Sudoeste 0 -- -- 52
2020-01-28 12:00:00 17.8 14 Oeste 25 Oeste 0 -- -- 54
2020-01-28 11:00:00 15.7 9 Sudoeste 16 Sudoeste 0 -- -- 60
2020-01-28 10:00:00 14.1 6 Oeste 19 Sudoeste 0 -- -- 62
2020-01-28 09:00:00 11.1 8 Sudoeste 14 Sudoeste 0 -- -- 68
2020-01-28 08:00:00 9.6 5 Sudoeste 8 Sudoeste 0 -- -- 72
2020-01-28 07:00:00 10.7 5 Sudoeste 14 Sudoeste 0 -- -- 68
2020-01-28 06:00:00 9.8 3 Oeste 17 Oeste 0 -- -- 72
2020-01-28 05:00:00 11.7 7 Oeste 18 Oeste 0 -- -- 62
2020-01-28 04:00:00 11.3 8 Sudoeste 15 Oeste 0 -- -- 65
2020-01-28 03:00:00 11.2 5 Sudoeste 18 Sudoeste 0 -- -- 65
2020-01-28 02:00:00 11.7 11 Sudoeste 19 Sudoeste 0 -- -- 63
2020-01-28 01:00:00 11.6 9 Sudoeste 15 Sudoeste 0 -- -- 64
2020-01-28 00:00:00 12.1 8 Sudoeste 17 Sudoeste 0 -- -- 64
2020-01-27 23:00:00 11.4 5 Oeste 15 Sudoeste 0 -- -- 70
2020-01-27 22:00:00 11.8 8 Sudoeste 16 Sudoeste 0 -- -- 73
2020-01-27 21:00:00 12.4 9 Sudoeste 22 Sudoeste 0 -- -- 74
2020-01-27 20:00:00 12.8 15 Sur 27 Sur 0 -- -- 76
2020-01-27 19:00:00 13.6 13 Sur 26 Sudoeste 0 -- -- 72
2020-01-27 18:00:00 15.2 5 Sudoeste 19 Sudoeste 0 -- -- 56
2020-01-27 17:00:00 16.5 10 Sudoeste 22 Oeste 0 -- -- 50
2020-01-27 16:00:00 17.2 8 Sudoeste 20 Sudoeste 0 -- -- 49
2020-01-27 15:00:00 17 11 Oeste 23 Oeste 0 -- -- 49
2020-01-27 14:00:00 16.2 14 Oeste 24 Oeste 0 -- -- 51
2020-01-27 13:00:00 15.3 11 Oeste 22 Oeste 0 -- -- 52
2020-01-27 12:00:00 14 10 Oeste 24 Sudoeste 0 -- -- 56
2020-01-27 11:00:00 12.2 13 Oeste 23 Oeste 0 -- -- 61
2020-01-27 10:00:00 10.2 11 Sudoeste 18 Sudoeste 0 -- -- 68
2020-01-27 09:00:00 8.1 9 Sudoeste 15 Sudoeste 0 -- -- 76
2020-01-27 08:00:00 6.5 2 Noroeste 10 Oeste 0 -- -- 80
2020-01-27 07:00:00 7 2 Norte 12 Oeste 0 -- -- 78
2020-01-27 06:00:00 6.3 4 Oeste 15 Sudoeste 0 -- -- 81
2020-01-27 05:00:00 8.4 10 Oeste 21 Oeste 0 -- -- 75
2020-01-27 04:00:00 9.5 10 Sudoeste 18 Sudoeste 0 -- -- 70
2020-01-27 03:00:00 9.8 12 Sudoeste 20 Oeste 0 -- -- 70
2020-01-27 02:00:00 10.2 11 Oeste 22 Oeste 0 -- -- 69
2020-01-27 01:00:00 10.6 12 Sudoeste 22 Sudoeste 0 -- -- 68
2020-01-27 00:00:00 10.3 7 Oeste 15 Oeste 0 -- -- 70
2020-01-26 23:00:00 11.3 9 Sudoeste 18 Sudoeste 0 -- -- 67
2020-01-26 22:00:00 11.8 8 Sudoeste 15 Sudoeste 0 -- -- 66
2020-01-26 21:00:00 12.2 10 Sudoeste 20 Oeste 0 -- -- 66
2020-01-26 20:00:00 13.2 12 Oeste 18 Oeste 0 -- -- 62
2020-01-26 19:00:00 13.7 11 Oeste 23 Oeste 0 -- -- 61
2020-01-26 18:00:00 15.7 15 Oeste 27 Oeste 0 -- -- 54
2020-01-26 17:00:00 17 16 Oeste 34 Oeste 0 -- -- 51
2020-01-26 16:00:00 18 19 Oeste 36 Oeste 0 -- -- 46
2020-01-26 15:00:00 17.8 23 Oeste 36 Oeste 0 -- -- 47
2020-01-26 14:00:00 17.2 25 Oeste 40 Oeste 0 -- -- 49
2020-01-26 13:00:00 16.2 15 Oeste 27 Oeste 0 -- -- 56
2020-01-26 12:00:00 14.8 10 Oeste 21 Sudoeste 0 -- -- 66
2020-01-26 11:00:00 13 10 Oeste 21 Sudoeste 0 -- -- 73
2020-01-26 10:00:00 10.4 8 Oeste 19 Sudoeste 0 -- -- 85
2020-01-26 09:00:00 9.4 8 Oeste 19 Sudoeste 0 -- -- 91
2020-01-26 08:00:00 9.1 10 Oeste 18 Oeste 0 -- -- 95
2020-01-26 07:00:00 8.3 4 Oeste 12 Oeste 0 -- -- 95
2020-01-26 06:00:00 8.2 5 Oeste 11 Oeste 0 -- -- 94
2020-01-26 05:00:00 9 2 Noroeste 12 Oeste 0 -- -- 92
2020-01-26 04:00:00 10.2 5 Sudoeste 13 Sudoeste 0 -- -- 90
2020-01-26 03:00:00 10.6 7 Sudoeste 13 Sudoeste 0 -- -- 93
2020-01-26 02:00:00 10.6 7 Sudoeste 11 Sudoeste 0 -- -- 94
2020-01-26 01:00:00 10.6 4 Sudoeste 8 Noroeste 0 -- -- 92
2020-01-26 00:00:00 11.1 6 Sudoeste 9 Sudoeste 0 -- -- 90
2020-01-25 23:00:00 11.2 4 Sudoeste 10 Sudoeste 0 -- -- 91
2020-01-25 22:00:00 11 7 Sudoeste 10 Sudoeste 0 -- -- 90
2020-01-25 21:00:00 11.1 4 Sudoeste 7 Sudoeste 0 -- -- 90
2020-01-25 20:00:00 11.4 5 Sudoeste 7 Sudeste 0 -- -- 87
2020-01-25 19:00:00 12.2 4 Sur 7 Sur 0 -- -- 84
2020-01-25 18:00:00 13.4 5 Sur 11 Este 0 -- -- 80
2020-01-25 17:00:00 14.4 3 Sudeste 6 Sudeste 0 -- -- 76
2020-01-25 16:00:00 14.7 4 Este 8 Norte 0 -- -- 72
2020-01-25 15:00:00 14.6 3 Noroeste 6 Noroeste 0 -- -- 76
2020-01-25 14:00:00 14.1 3 Oeste 14 Noroeste 0 -- -- 75
2020-01-25 13:00:00 13.3 10 Noroeste 26 Nordeste 0 -- -- 81
2020-01-25 12:00:00 12 10 Nordeste 14 Nordeste 0 -- -- 87
2020-01-25 11:00:00 11.6 4 Oeste 9 Oeste 0 -- -- 87
2020-01-25 10:00:00 10.1 2 Noroeste 8 Oeste 0 -- -- 88
2020-01-25 09:00:00 9.5 2 Nordeste 8 Oeste 0 -- -- 91
2020-01-25 08:00:00 9.3 3 Oeste 6 Oeste 0 -- -- 91
2020-01-25 07:00:00 9.7 5 Oeste 9 Oeste 0 -- -- 92
2020-01-25 06:00:00 9.7 3 Oeste 7 Oeste 0 -- -- 91
2020-01-25 05:00:00 9.5 3 Sudoeste 7 Sudoeste 0 -- -- 94
2020-01-25 04:00:00 9.2 3 Oeste 7 Oeste 0 -- -- 95
2020-01-25 03:00:00 9 0 Calma 7 Oeste 0 -- -- 94
2020-01-25 02:00:00 9.7 6 Oeste 9 Sudoeste 0 -- -- 95
2020-01-25 01:00:00 9.7 4 Oeste 6 Sudoeste 0 -- -- 94
2020-01-25 00:00:00 10.2 0 Calma 5 Nordeste 0 -- -- 94
2020-01-24 23:00:00 10.4 0 Calma 6 Oeste 0 -- -- 94
2020-01-24 22:00:00 10.6 4 Oeste 8 Sudoeste 0 -- -- 93
2020-01-24 21:00:00 10.7 6 Sudoeste 9 Sudoeste 0 -- -- 92
2020-01-24 20:00:00 12 0 Calma 14 Este 0 -- -- 88
2020-01-24 19:00:00 12.6 8 Este 19 Este 0 -- -- 86
2020-01-24 18:00:00 13.4 8 Este 22 Nordeste 0 -- -- 83
2020-01-24 17:00:00 14.2 12 Nordeste 23 Este 0 -- -- 78
2020-01-24 16:00:00 14.6 15 Nordeste 27 Nordeste 0 -- -- 75
2020-01-24 15:00:00 15.3 18 Nordeste 29 Nordeste 0 -- -- 73
2020-01-24 14:00:00 15 16 Nordeste 29 Nordeste 0 -- -- 75
2020-01-24 13:00:00 14.1 10 Nordeste 17 Nordeste 0 -- -- 78
2020-01-24 12:00:00 13.2 5 Noroeste 9 Noroeste 0 -- -- 79
2020-01-24 11:00:00 11.2 0 Calma 8 Norte 0 -- -- 82
2020-01-24 10:00:00 10.3 3 Noroeste 8 Noroeste 0 -- -- 80
2020-01-24 09:00:00 9.3 3 Oeste 6 Sudoeste 0 -- -- 82
2020-01-24 08:00:00 8.8 0 Calma 5 Sudoeste 0 -- -- 83
2020-01-24 07:00:00 8.7 2 Norte 8 Noroeste 0 -- -- 84
2020-01-24 06:00:00 8.5 4 Sudoeste 7 Oeste 0 -- -- 87
2020-01-24 05:00:00 8.8 0 Calma 7 Oeste 0 -- -- 86
2020-01-24 04:00:00 9.5 3 Oeste 9 Oeste 0 -- -- 86
2020-01-24 03:00:00 9.5 3 Oeste 5 Noroeste 0 -- -- 88
2020-01-24 02:00:00 8.6 3 Oeste 5 Oeste 0 -- -- 91
2020-01-24 01:00:00 8.6 3 Noroeste 6 Noroeste 0 -- -- 90
2020-01-24 00:00:00 9.3 3 Nordeste 6 Nordeste 0 -- -- 91
2020-01-23 23:00:00 10.1 2 Nordeste 7 Nordeste 0 -- -- 91
2020-01-23 22:00:00 11.1 5 Nordeste 8 Nordeste 0 -- -- 93
2020-01-23 21:00:00 11.2 4 Nordeste 9 Nordeste 0 -- -- 93
2020-01-23 20:00:00 11.9 7 Nordeste 13 Este 0 -- -- 92
2020-01-23 19:00:00 12.6 9 Este 21 Este 0 -- -- 91
2020-01-23 18:00:00 13.4 11 Nordeste 23 Este 0 -- -- 88
2020-01-23 17:00:00 14.2 15 Este 24 Nordeste 0 -- -- 84
2020-01-23 16:00:00 14.5 10 Este 23 Este 0 -- -- 79
2020-01-23 15:00:00 14.9 12 Este 21 Este 0 -- -- 77
2020-01-23 14:00:00 14.7 12 Este 21 Este 0 -- -- 80
2020-01-23 13:00:00 15.6 9 Este 18 Este 0 -- -- 76
2020-01-23 12:00:00 13.1 3 Norte 7 Norte 0 -- -- 85
2020-01-23 11:00:00 10.7 3 Noroeste 9 Oeste 0 -- -- 89
2020-01-23 10:00:00 8.7 6 Oeste 10 Oeste 0 -- -- 93
2020-01-23 09:00:00 7.3 7 Oeste 12 Sudoeste 0 -- -- 95
2020-01-23 08:00:00 7 5 Oeste 9 Oeste 0 -- -- 94
2020-01-23 07:00:00 7.4 3 Oeste 6 Sudoeste 0 -- -- 94
2020-01-23 06:00:00 7.3 5 Sudoeste 12 Oeste 0 -- -- 94
2020-01-23 05:00:00 7.3 4 Oeste 9 Oeste 0 -- -- 95
2020-01-23 04:00:00 8 4 Oeste 6 Oeste 0 -- -- 94
2020-01-23 03:00:00 8.6 4 Oeste 8 Oeste 0 -- -- 95
2020-01-23 02:00:00 8.1 2 Oeste 3 Oeste 0 -- -- 95
2020-01-23 01:00:00 8.1 0 Calma 3 Noroeste 0 -- -- 93
2020-01-23 00:00:00 8.9 0 Calma 10 Sudoeste 0 -- -- 91
2020-01-22 23:00:00 9.5 8 Sudoeste 11 Sudoeste 0 -- -- 93
2020-01-22 22:00:00 9.5 3 Noroeste 8 Sudoeste 0 -- -- 90
2020-01-22 21:00:00 10.3 6 Sudoeste 9 Sudoeste 0 -- -- 90
2020-01-22 20:00:00 11.5 3 Este 9 Este 0 -- -- 85
2020-01-22 19:00:00 11.9 0 Calma 5 Nordeste 0 -- -- 85
2020-01-22 18:00:00 13.8 4 Este 14 Este 0 -- -- 78
2020-01-22 17:00:00 14.5 8 Nordeste 21 Nordeste 0 -- -- 78
2020-01-22 16:00:00 15 15 Nordeste 26 Nordeste 0 -- -- 72
2020-01-22 15:00:00 15.3 11 Nordeste 27 Nordeste 0 -- -- 72
2020-01-22 14:00:00 15.7 15 Nordeste 27 Nordeste 0 -- -- 71
2020-01-22 13:00:00 15.3 13 Nordeste 21 Nordeste 0 -- -- 74
2020-01-22 12:00:00 14.5 10 Nordeste 22 Nordeste 0 -- -- 75
2020-01-22 11:00:00 12.3 4 Norte 9 Norte 0 -- -- 82
2020-01-22 10:00:00 9.3 0 Calma 7 Nordeste 0 -- -- 93
2020-01-22 09:00:00 7.8 0 Calma 8 Nordeste 0 -- -- 95
2020-01-22 08:00:00 8.1 6 Este 10 Este 0 -- -- 96
2020-01-22 07:00:00 8.4 5 Este 8 Este 0 -- -- 96
2020-01-22 06:00:00 8.3 0 Calma 6 Sudeste 0 -- -- 97
2020-01-22 05:00:00 7.7 5 Sudoeste 9 Sudoeste 0.2 -- -- 96
2020-01-22 04:00:00 8.3 5 Sudoeste 8 Sudoeste 0 -- -- 96
2020-01-22 03:00:00 8.2 4 Sudoeste 6 Oeste 0 -- -- 96
2020-01-22 02:00:00 8.8 4 Sudoeste 6 Oeste 0 -- -- 95
2020-01-22 01:00:00 9.1 0 Calma 5 Sudoeste 0 -- -- 95
2020-01-22 00:00:00 9.5 0 Calma 10 Sur 0 -- -- 94
2020-01-21 23:00:00 10.1 5 Sur 13 Sudoeste 0.2 -- -- 94
2020-01-21 22:00:00 9.5 2 Oeste 3 Oeste 0 -- -- 92
2020-01-21 21:00:00 10.2 0 Calma 4 Sudoeste 0 -- -- 88
2020-01-21 20:00:00 10.5 0 Calma 4 Sudeste 0 -- -- 89
2020-01-21 19:00:00 10.9 0 Calma 5 Oeste 0 -- -- 87
2020-01-21 18:00:00 11.6 3 Oeste 6 Oeste 0 -- -- 83
2020-01-21 17:00:00 12.6 2 Sur 12 Oeste 0 -- -- 79
2020-01-21 16:00:00 12.8 7 Sudoeste 17 Sudoeste 0 -- -- 78
2020-01-21 15:00:00 12.6 8 Oeste 21 Sudoeste 0 -- -- 80
2020-01-21 14:00:00 11.6 13 Oeste 27 Oeste 0 -- -- 85
2020-01-21 13:00:00 9.6 13 Oeste 25 Oeste 0 -- -- 90
2020-01-21 12:00:00 8.9 18 Oeste 34 Sudoeste 0.2 -- -- 93
2020-01-21 11:00:00 10.1 17 Oeste 40 Nordeste 0 -- -- 84
2020-01-21 10:00:00 11.9 18 Nordeste 36 Nordeste 0 -- -- 96
2020-01-21 09:00:00 9.8 10 Sudoeste 28 Norte 1.2 -- -- 95
2020-01-21 08:00:00 9.2 13 Noroeste 25 Oeste 4.8 -- -- 94
2020-01-21 07:00:00 8.6 6 Noroeste 21 Norte 3.4 -- -- 95
2020-01-21 06:00:00 8 9 Norte 20 Norte 2.8 -- -- 94
2020-01-21 05:00:00 8.7 12 Nordeste 28 Este 5.2 -- -- 92
2020-01-21 04:00:00 9.7 16 Norte 39 Norte 1 -- -- 88
2020-01-21 03:00:00 11.1 14 Norte 26 Nordeste 2.6 -- -- 90
2020-01-21 02:00:00 8.9 12 Noroeste 21 Noroeste 0.4 -- -- 90
2020-01-21 01:00:00 8.7 7 Oeste 14 Noroeste 0.6 -- -- 94
2020-01-21 00:00:00 8.6 5 Oeste 14 Sudoeste 0.2 -- -- 95
2020-01-20 23:00:00 8.3 9 Oeste 14 Sudoeste 0 -- -- 95
2020-01-20 22:00:00 8.4 6 Oeste 13 Noroeste 0.4 -- -- 94
2020-01-20 21:00:00 8.6 4 Noroeste 11 Norte 0.8 -- -- 94
2020-01-20 20:00:00 8.7 6 Oeste 14 Oeste 0 -- -- 94
2020-01-20 19:00:00 9 5 Sudoeste 12 Noroeste 0.6 -- -- 93
2020-01-20 18:00:00 9.2 8 Oeste 35 Sudeste 3.2 -- -- 92
2020-01-20 17:00:00 9.6 4 Sudoeste 19 Oeste 0.6 -- -- 86
2020-01-20 16:00:00 9.7 10 Oeste 21 Oeste 0 -- -- 88
2020-01-20 15:00:00 10.7 8 Oeste 25 Este 0.2 -- -- 86
2020-01-20 14:00:00 11.6 2 Sur 14 Oeste 0 -- -- 84
2020-01-20 13:00:00 9.7 6 Oeste 16 Noroeste 0 -- -- 88
2020-01-20 12:00:00 8.9 9 Sudoeste 20 Norte 0 -- -- 86
2020-01-20 11:00:00 8.3 12 Norte 31 Nordeste 0.8 -- -- 88
2020-01-20 10:00:00 8 11 Norte 33 Norte 1.2 -- -- 90
2020-01-20 09:00:00 7.5 13 Norte 50 Norte 0.8 -- -- 91
2020-01-20 08:00:00 9.2 32 Nordeste 63 Norte 0.6 -- -- 87
2020-01-20 07:00:00 7.9 34 Norte 64 Norte 0.2 -- -- 79
2020-01-20 06:00:00 8.1 34 Norte 63 Norte 0 -- -- 71
2020-01-20 05:00:00 8.4 30 Norte 49 Norte 0 -- -- 72
2020-01-20 04:00:00 7.7 19 Norte 38 Norte 0 -- -- 80
2020-01-20 03:00:00 7.8 22 Norte 49 Nordeste 1 -- -- 82
2020-01-20 02:00:00 8.4 24 Norte 41 Norte 0.6 -- -- 77
2020-01-20 01:00:00 8.3 21 Norte 33 Norte 1.2 -- -- 80
2020-01-20 00:00:00 8.7 14 Norte 33 Norte 0.6 -- -- 80
2020-01-19 23:00:00 9.5 23 Norte 43 Norte 0 -- -- 72
2020-01-19 22:00:00 9.2 24 Norte 43 Norte 0 -- -- 73
2020-01-19 21:00:00 8.6 26 Norte 44 Norte 1.6 -- -- 79
2020-01-19 20:00:00 8 22 Norte 39 Norte 3.2 -- -- 84
2020-01-19 19:00:00 6.6 19 Noroeste 51 Noroeste 3.8 -- -- 88
2020-01-19 18:00:00 8.8 26 Norte 45 Norte 0 -- -- 68
2020-01-19 17:00:00 9.6 24 Noroeste 46 Noroeste 0 -- -- 67
2020-01-19 16:00:00 10.1 27 Noroeste 45 Norte 0 -- -- 65
2020-01-19 15:00:00 10.1 24 Noroeste 34 Noroeste 1 -- -- 73
2020-01-19 14:00:00 10.8 21 Noroeste 35 Noroeste 0 -- -- 75
2020-01-19 13:00:00 12 17 Noroeste 35 Noroeste 0 -- -- 68
2020-01-19 12:00:00 12.9 21 Noroeste 28 Noroeste 0 -- -- 63
2020-01-19 11:00:00 12.5 17 Oeste 34 Oeste 0 -- -- 64
2020-01-19 10:00:00 12.3 21 Oeste 35 Noroeste 0 -- -- 64
2020-01-19 09:00:00 8.9 11 Oeste 29 Oeste 0 -- -- 76
2020-01-19 08:00:00 9.9 18 Oeste 30 Oeste 0 -- -- 74
2020-01-19 07:00:00 10.5 13 Oeste 22 Oeste 0 -- -- 73
2020-01-19 06:00:00 10.8 7 Oeste 46 Noroeste 0 -- -- 71
2020-01-19 05:00:00 8.4 6 Sudoeste 14 Oeste 0 -- -- 88
2020-01-19 04:00:00 8.2 7 Noroeste 14 Noroeste 0 -- -- 89
2020-01-19 03:00:00 9.1 6 Sudoeste 13 Noroeste 0 -- -- 87
2020-01-19 02:00:00 9.5 3 Sudeste 9 Noroeste 0 -- -- 87
2020-01-19 01:00:00 9.9 6 Oeste 10 Sudoeste 0 -- -- 90
2020-01-19 00:00:00 10.2 3 Norte 13 Sudoeste 0 -- -- 83
2020-01-18 23:00:00 12.1 9 Sur 20 Sur 0 -- -- 82
2020-01-18 22:00:00 12.8 8 Sur 18 Sur 0 -- -- 78
2020-01-18 21:00:00 12.8 9 Sur 22 Sudoeste 0 -- -- 74
2020-01-18 20:00:00 12.9 12 Sur 24 Sur 0 -- -- 71
2020-01-18 19:00:00 13.2 14 Sur 25 Sur 0 -- -- 69
2020-01-18 18:00:00 14.2 10 Sur 21 Sudoeste 0 -- -- 65
2020-01-18 17:00:00 15.6 6 Sudoeste 15 Sur 0 -- -- 60
2020-01-18 16:00:00 16.1 6 Sudoeste 13 Sudoeste 0 -- -- 58
2020-01-18 15:00:00 15.3 6 Oeste 14 Oeste 0 -- -- 58
2020-01-18 14:00:00 14.4 6 Oeste 19 Oeste 0 -- -- 61
2020-01-18 13:00:00 12.5 10 Oeste 18 Oeste 0 -- -- 67
2020-01-18 12:00:00 11.3 8 Sudoeste 14 Sudoeste 0 -- -- 72
2020-01-18 11:00:00 9.9 0 Calma 12 Oeste 0 -- -- 77
2020-01-18 10:00:00 9.5 6 Oeste 12 Oeste 0 -- -- 76
2020-01-18 09:00:00 8.6 3 Noroeste 12 Sudoeste 0 -- -- 78
2020-01-18 08:00:00 8.9 6 Oeste 13 Oeste 0 -- -- 76
2020-01-18 07:00:00 9.2 4 Oeste 8 Oeste 0 -- -- 75
2020-01-18 06:00:00 10 5 Oeste 8 Sudoeste 0 -- -- 71
2020-01-18 05:00:00 10 8 Sudoeste 11 Sudoeste 0 -- -- 70
2020-01-18 04:00:00 10.9 2 Oeste 10 Sudoeste 0 -- -- 66
2020-01-18 03:00:00 12.7 5 Sudoeste 15 Sudoeste 0 -- -- 59
2020-01-18 02:00:00 13 6 Sudoeste 14 Oeste 0 -- -- 58
2020-01-18 01:00:00 14.4 13 Oeste 26 Noroeste 0 -- -- 53
2020-01-18 00:00:00 13.7 17 Noroeste 28 Noroeste 0 -- -- 56
2020-01-17 23:00:00 12.5 6 Noroeste 10 Noroeste 0 -- -- 60
2020-01-17 22:00:00 12.6 5 Sudoeste 10 Sudoeste 0 -- -- 60
2020-01-17 21:00:00 14 5 Oeste 11 Oeste 0 -- -- 56
2020-01-17 20:00:00 16 8 Oeste 21 Oeste 0 -- -- 49
2020-01-17 19:00:00 16.7 6 Sudoeste 15 Sudoeste 0 -- -- 47
2020-01-17 18:00:00 17.5 9 Sudoeste 16 Oeste 0 -- -- 47
2020-01-17 17:00:00 19.2 9 Oeste 30 Oeste 0 -- -- 45
2020-01-17 16:00:00 20.4 19 Oeste 31 Oeste 0 -- -- 39
2020-01-17 15:00:00 19.8 17 Oeste 30 Oeste 0 -- -- 39
2020-01-17 14:00:00 19.3 16 Oeste 32 Oeste 0 -- -- 39
2020-01-17 13:00:00 17.7 11 Oeste 21 Oeste 0 -- -- 42
2020-01-17 12:00:00 15.5 9 Oeste 16 Oeste 0 -- -- 48
2020-01-17 11:00:00 13.3 6 Oeste 14 Sudoeste 0 -- -- 57
2020-01-17 10:00:00 8.7 6 Sudoeste 10 Sudoeste 0 -- -- 75
2020-01-17 09:00:00 5.5 4 Noroeste 11 Sudoeste 0 -- -- 84
2020-01-17 08:00:00 4.6 5 Oeste 11 Sudoeste 0 -- -- 90
2020-01-17 07:00:00 4.6 3 Oeste 6 Norte 0 -- -- 89
2020-01-17 06:00:00 4.9 0 Calma 6 Sudoeste 0 -- -- 87
2020-01-17 05:00:00 5.4 3 Sudoeste 9 Sudoeste 0 -- -- 86
2020-01-17 04:00:00 5.7 3 Oeste 8 Oeste 0 -- -- 88
2020-01-17 03:00:00 6.3 0 Calma 9 Sudoeste 0 -- -- 86
2020-01-17 02:00:00 7 6 Oeste 11 Oeste 0 -- -- 87
2020-01-17 01:00:00 8.2 2 Noroeste 8 Oeste 0 -- -- 85
2020-01-17 00:00:00 9.1 0 Calma 8 Sur 0 -- -- 85
2020-01-16 23:00:00 9.3 3 Sudeste 10 Sudoeste 0 -- -- 86
2020-01-16 22:00:00 9.8 5 Oeste 10 Sudoeste 0 -- -- 76
2020-01-16 21:00:00 10.9 4 Sudoeste 8 Sudeste 0 -- -- 70
2020-01-16 20:00:00 13.2 4 Noroeste 22 Sur 0 -- -- 63
2020-01-16 19:00:00 14.4 13 Sur 23 Sur 0 -- -- 58
2020-01-16 18:00:00 14.8 13 Sudeste 19 Sudeste 0 -- -- 72
2020-01-16 17:00:00 16 13 Sudeste 19 Sur 0 -- -- 56
2020-01-16 16:00:00 18.5 7 Sur 12 Sudeste 0 -- -- 48
2020-01-16 15:00:00 18.8 0 Calma 12 Noroeste 0 -- -- 45
2020-01-16 14:00:00 17.4 3 Oeste 12 Oeste 0 -- -- 49
2020-01-16 13:00:00 16.1 6 Oeste 12 Oeste 0 -- -- 50
2020-01-16 12:00:00 14.5 4 Oeste 14 Oeste 0 -- -- 50
2020-01-16 11:00:00 11.8 8 Oeste 13 Oeste 0 -- -- 56
2020-01-16 10:00:00 7.8 4 Oeste 7 Oeste 0 -- -- 72
2020-01-16 09:00:00 5.6 3 Oeste 6 Nordeste 0 -- -- 79
2020-01-16 08:00:00 5.7 2 Noroeste 5 Oeste 0 -- -- 79
2020-01-16 07:00:00 6.4 2 Noroeste 12 Oeste 0 -- -- 75
2020-01-16 06:00:00 5.9 4 Oeste 10 Oeste 0 -- -- 79
2020-01-16 05:00:00 6.2 5 Oeste 9 Sudoeste 0 -- -- 79
2020-01-16 04:00:00 6.5 5 Oeste 10 Oeste 0 -- -- 79
2020-01-16 03:00:00 6.7 6 Oeste 9 Oeste 0 -- -- 79
2020-01-16 02:00:00 8.4 8 Oeste 12 Oeste 0 -- -- 74
2020-01-16 01:00:00 8.7 3 Oeste 12 Sudoeste 0 -- -- 70
2020-01-16 00:00:00 12.1 8 Sudoeste 17 Oeste 0 -- -- 58
2020-01-15 23:00:00 11.2 8 Sudoeste 13 Sudoeste 0 -- -- 61
2020-01-15 22:00:00 10.7 8 Sudoeste 12 Sudoeste 0 -- -- 63
2020-01-15 21:00:00 11 3 Oeste 11 Noroeste 0 -- -- 62
2020-01-15 20:00:00 13.4 7 Oeste 20 Sudoeste 0 -- -- 54
2020-01-15 19:00:00 14.2 10 Sur 19 Sur 0 -- -- 53
2020-01-15 18:00:00 15.1 11 Sur 20 Sudeste 0 -- -- 53
2020-01-15 17:00:00 15.5 13 Sur 21 Sur 0 -- -- 57
2020-01-15 16:00:00 17.3 7 Sudeste 17 Sudeste 0 -- -- 51
2020-01-15 15:00:00 17.1 5 Oeste 12 Oeste 0 -- -- 46
2020-01-15 14:00:00 15.8 9 Oeste 19 Oeste 0 -- -- 45
2020-01-15 13:00:00 14.7 10 Oeste 21 Oeste 0 -- -- 49
2020-01-15 12:00:00 13.6 10 Oeste 17 Oeste 0 -- -- 52
2020-01-15 11:00:00 10.6 9 Oeste 14 Oeste 0 -- -- 63
2020-01-15 10:00:00 5.6 4 Oeste 6 Oeste 0 -- -- 81
2020-01-15 09:00:00 3.5 0 Calma 7 Oeste 0 -- -- 85
2020-01-15 08:00:00 4.3 3 Oeste 10 Oeste 0 -- -- 79
2020-01-15 07:00:00 3.3 3 Sudoeste 10 Oeste 0 -- -- 86
2020-01-15 06:00:00 4.1 4 Oeste 10 Oeste 0 -- -- 82
2020-01-15 05:00:00 3.6 8 Sudoeste 10 Sudoeste 0 -- -- 87
2020-01-15 04:00:00 4.5 4 Noroeste 12 Oeste 0 -- -- 81
2020-01-15 03:00:00 5.4 7 Sudoeste 11 Oeste 0 -- -- 87
2020-01-15 02:00:00 5.3 3 Oeste 8 Sudoeste 0 -- -- 87
2020-01-15 01:00:00 5.6 5 Sudoeste 8 Sudoeste 0 -- -- 89
2020-01-15 00:00:00 7 4 Noroeste 10 Sudoeste 0 -- -- 83
2020-01-14 23:00:00 8 5 Oeste 10 Sudoeste 0 -- -- 82
2020-01-14 22:00:00 8.6 5 Sudoeste 13 Sudoeste 0 -- -- 80
2020-01-14 21:00:00 10.6 8 Sudoeste 21 Sur 0 -- -- 72
2020-01-14 20:00:00 11.8 13 Sur 22 Sur 0 -- -- 70
2020-01-14 19:00:00 12.1 11 Sur 22 Sur 0 -- -- 75
2020-01-14 18:00:00 13.3 11 Sur 20 Sur 0 -- -- 69
2020-01-14 17:00:00 14.5 9 Sur 21 Sur 0 -- -- 61
2020-01-14 16:00:00 16.8 5 Sudoeste 14 Sudoeste 0 -- -- 37
2020-01-14 15:00:00 16.4 9 Sudoeste 20 Oeste 0 -- -- 37
2020-01-14 14:00:00 15.6 10 Oeste 19 Sudoeste 0 -- -- 39
2020-01-14 13:00:00 13.9 10 Oeste 18 Oeste 0 -- -- 46
2020-01-14 12:00:00 12.1 12 Oeste 25 Oeste 0 -- -- 50
2020-01-14 11:00:00 10.1 14 Oeste 24 Sudoeste 0 -- -- 55
2020-01-14 10:00:00 6.3 8 Oeste 14 Sudoeste 0 -- -- 74
2020-01-14 09:00:00 4.8 9 Sudoeste 18 Sudoeste 0 -- -- 75
2020-01-14 08:00:00 2.9 6 Oeste 9 Sudoeste 0 -- -- 87
2020-01-14 07:00:00 3.5 6 Oeste 10 Oeste 0 -- -- 89
2020-01-14 06:00:00 3.8 5 Oeste 13 Oeste 0 -- -- 91
2020-01-14 05:00:00 3.9 6 Oeste 10 Oeste 0 -- -- 94
2020-01-14 04:00:00 4.4 4 Sudoeste 6 Oeste 0 -- -- 94
2020-01-14 03:00:00 4.8 0 Calma 4 Oeste 0 -- -- 94
2020-01-14 02:00:00 5.4 2 Oeste 8 Sudoeste 0 -- -- 92
2020-01-14 01:00:00 6.7 4 Norte 8 Oeste 0 -- -- 91
2020-01-14 00:00:00 8 2 Noroeste 13 Sudoeste 0 -- -- 85
2020-01-13 23:00:00 8.4 4 Oeste 14 Sudoeste 0 -- -- 85
2020-01-13 22:00:00 10.9 9 Sudoeste 24 Sudoeste 0 -- -- 79
2020-01-13 21:00:00 11.2 11 Sudoeste 24 Sur 0 -- -- 78
2020-01-13 20:00:00 11.7 14 Sudoeste 25 Sudoeste 0 -- -- 77
2020-01-13 19:00:00 11.9 9 Sur 18 Sur 0 -- -- 75
2020-01-13 18:00:00 12.9 10 Sur 23 Sudoeste 0 -- -- 67
2020-01-13 17:00:00 14.6 9 Sudoeste 17 Sur 0 -- -- 62
2020-01-13 16:00:00 15.3 6 Oeste 16 Oeste 0 -- -- 56
2020-01-13 15:00:00 15.7 8 Oeste 19 Oeste 0 -- -- 55
2020-01-13 14:00:00 14.5 8 Oeste 17 Sudoeste 0 -- -- 60
2020-01-13 13:00:00 12.8 9 Oeste 18 Oeste 0 -- -- 59
2020-01-13 12:00:00 10.6 10 Oeste 17 Oeste 0 -- -- 63
2020-01-13 11:00:00 8 10 Oeste 16 Oeste 0 -- -- 76
2020-01-13 10:00:00 4.4 6 Oeste 9 Oeste 0 -- -- 96
2020-01-13 09:00:00 2.1 3 Oeste 5 Oeste 0 -- -- 96
2020-01-13 08:00:00 2.1 3 Sudoeste 5 Oeste 0 -- -- 95
2020-01-13 07:00:00 2.9 5 Oeste 8 Oeste 0 -- -- 95
2020-01-13 06:00:00 2.8 0 Calma 6 Oeste 0 -- -- 95
2020-01-13 05:00:00 3.7 3 Noroeste 6 Oeste 0 -- -- 95
2020-01-13 04:00:00 4 4 Oeste 6 Oeste 0 -- -- 94
2020-01-13 03:00:00 4.4 0 Calma 5 Oeste 0 -- -- 92
2020-01-13 02:00:00 5.7 4 Oeste 11 Oeste 0 -- -- 91
2020-01-13 01:00:00 6.7 6 Oeste 12 Oeste 0 -- -- 91
2020-01-13 00:00:00 6.9 3 Oeste 8 Oeste 0 -- -- 89
2020-01-12 23:00:00 7.1 5 Sudoeste 9 Sudoeste 0 -- -- 91
2020-01-12 22:00:00 7.7 6 Sudoeste 9 Oeste 0 -- -- 91
2020-01-12 21:00:00 8 4 Sudoeste 6 Oeste 0 -- -- 87
2020-01-12 20:00:00 9.7 0 Calma 13 Este 0 -- -- 80
2020-01-12 19:00:00 10.4 10 Este 15 Este 0 -- -- 80
2020-01-12 18:00:00 10.8 0 Calma 15 Nordeste 0 -- -- 76
2020-01-12 17:00:00 12.7 6 Nordeste 26 Este 0 -- -- 69
2020-01-12 16:00:00 13.5 17 Este 28 Nordeste 0 -- -- 68
2020-01-12 15:00:00 14.4 12 Este 23 Este 0 -- -- 65
2020-01-12 14:00:00 15.2 8 Norte 14 Norte 0 -- -- 45
2020-01-12 13:00:00 14.2 5 Noroeste 18 Oeste 0 -- -- 47
2020-01-12 12:00:00 12.2 10 Oeste 19 Sudoeste 0 -- -- 53
2020-01-12 11:00:00 10 11 Oeste 21 Oeste 0 -- -- 62
2020-01-12 10:00:00 7.5 12 Oeste 22 Oeste 0 -- -- 70
2020-01-12 09:00:00 4.2 8 Oeste 14 Oeste 0 -- -- 86
2020-01-12 08:00:00 4.2 6 Oeste 14 Oeste 0 -- -- 87
2020-01-12 07:00:00 4.3 7 Oeste 12 Oeste 0 -- -- 92
2020-01-12 06:00:00 4.4 5 Oeste 8 Oeste 0 -- -- 90
2020-01-12 05:00:00 6.1 6 Sudoeste 14 Sudoeste 0 -- -- 88
2020-01-12 04:00:00 6.6 8 Sudoeste 13 Sudoeste 0 -- -- 92
2020-01-12 03:00:00 6.1 6 Oeste 10 Sudoeste 0 -- -- 93
2020-01-12 02:00:00 6 4 Oeste 10 Oeste 0 -- -- 92
2020-01-12 01:00:00 7 4 Oeste 8 Oeste 0 -- -- 91
2020-01-12 00:00:00 7.6 3 Oeste 9 Oeste 0 -- -- 90
2020-01-11 23:00:00 8.5 6 Sudoeste 9 Sudoeste 0 -- -- 89
2020-01-11 22:00:00 8.8 5 Sudoeste 8 Oeste 0 -- -- 88
2020-01-11 21:00:00 9.1 4 Sudoeste 5 Oeste 0 -- -- 86
2020-01-11 20:00:00 10.7 0 Calma 17 Nordeste 0 -- -- 80
2020-01-11 19:00:00 12.1 10 Este 19 Este 0 -- -- 75
2020-01-11 18:00:00 12.9 8 Este 21 Este 0 -- -- 72
2020-01-11 17:00:00 14 12 Este 24 Este 0 -- -- 66
2020-01-11 16:00:00 15.3 10 Este 16 Este 0 -- -- 57
2020-01-11 15:00:00 15.7 5 Este 16 Este 0 -- -- 52
2020-01-11 14:00:00 15.9 4 Norte 15 Norte 0 -- -- 49
2020-01-11 13:00:00 15.5 9 Norte 17 Norte 0 -- -- 50
2020-01-11 12:00:00 14.3 10 Norte 18 Norte 0 -- -- 55
2020-01-11 11:00:00 12.2 7 Noroeste 12 Oeste 0 -- -- 64
2020-01-11 10:00:00 10.3 3 Oeste 9 Oeste 0.2 -- -- 71
2020-01-11 09:00:00 8.3 4 Oeste 8 Oeste 0 -- -- 77
2020-01-11 08:00:00 9.3 3 Oeste 8 Noroeste 0 -- -- 72
2020-01-11 07:00:00 10.4 5 Oeste 11 Oeste 0 -- -- 71
2020-01-11 06:00:00 10.6 6 Noroeste 13 Noroeste 0 -- -- 71
2020-01-11 05:00:00 10.6 6 Oeste 9 Oeste 0 -- -- 76
2020-01-11 04:00:00 10.7 6 Oeste 12 Sudoeste 0 -- -- 75
2020-01-11 03:00:00 10.6 4 Noroeste 9 Oeste 0 -- -- 77
2020-01-11 02:00:00 10.6 4 Noroeste 14 Noroeste 0 -- -- 78
2020-01-11 01:00:00 10.2 5 Oeste 10 Sudoeste 0 -- -- 81
2020-01-11 00:00:00 10.4 8 Sudoeste 13 Noroeste 0 -- -- 80
2020-01-10 23:00:00 10.9 4 Norte 14 Norte 0 -- -- 76
2020-01-10 22:00:00 11.2 7 Norte 24 Norte 0 -- -- 70
2020-01-10 21:00:00 11.9 16 Norte 30 Norte 0 -- -- 61
2020-01-10 20:00:00 12.1 11 Norte 18 Norte 0 -- -- 63
2020-01-10 19:00:00 12.6 12 Norte 35 Norte 0 -- -- 59
2020-01-10 18:00:00 12.6 3 Norte 10 Nordeste 0 -- -- 72
2020-01-10 17:00:00 14 8 Este 17 Nordeste 0 -- -- 67
2020-01-10 16:00:00 14.7 12 Este 22 Sudeste 0 -- -- 67
2020-01-10 15:00:00 16 4 Oeste 14 Oeste 0 -- -- 57
2020-01-10 14:00:00 14.5 3 Oeste 8 Oeste 0 -- -- 72
2020-01-10 13:00:00 13.5 4 Oeste 8 Noroeste 0 -- -- 74
2020-01-10 12:00:00 12.9 4 Noroeste 9 Noroeste 0 -- -- 74
2020-01-10 11:00:00 11.3 6 Oeste 11 Sudoeste 0 -- -- 76
2020-01-10 10:00:00 8.5 6 Oeste 13 Oeste 0 -- -- 90
2020-01-10 09:00:00 6.1 5 Oeste 8 Oeste 0 -- -- 95
2020-01-10 08:00:00 5.6 2 Noroeste 8 Oeste 0 -- -- 94
2020-01-10 07:00:00 6 4 Oeste 9 Oeste 0 -- -- 94
2020-01-10 06:00:00 6.9 5 Oeste 9 Sudoeste 0 -- -- 94
2020-01-10 05:00:00 7.2 4 Oeste 12 Oeste 0 -- -- 93
2020-01-10 04:00:00 7.9 4 Oeste 13 Sudoeste 0 -- -- 92
2020-01-10 03:00:00 7 4 Sudoeste 7 Oeste 0 -- -- 92
2020-01-10 02:00:00 8.5 2 Noroeste 10 Sudoeste 0 -- -- 86
2020-01-10 01:00:00 8.9 6 Sur 8 Sur 0 -- -- 94
2020-01-10 00:00:00 8.6 3 Oeste 6 Oeste 0 -- -- 89
2020-01-09 23:00:00 10.8 3 Sur 10 Sur 0 -- -- 85
2020-01-09 22:00:00 11 5 Sudoeste 10 Sudoeste 0 -- -- 85
2020-01-09 21:00:00 10.1 0 Calma 13 Sur 0 -- -- 84
2020-01-09 20:00:00 12 8 Sur 15 Sur 0 -- -- 81
2020-01-09 19:00:00 12.1 9 Sur 14 Sur 0 -- -- 78
2020-01-09 18:00:00 12.7 6 Sudeste 16 Sudeste 0 -- -- 75
2020-01-09 17:00:00 13.9 8 Sudeste 18 Este 0 -- -- 68
2020-01-09 16:00:00 15.2 7 Sudeste 12 Sudeste 0 -- -- 63
2020-01-09 15:00:00 16.1 3 Sur 14 Sur 0 -- -- 58
2020-01-09 14:00:00 15.4 4 Noroeste 12 Oeste 0 -- -- 59
2020-01-09 13:00:00 14.8 7 Noroeste 13 Oeste 0 -- -- 65
2020-01-09 12:00:00 13.3 6 Noroeste 14 Oeste 0 -- -- 71
2020-01-09 11:00:00 11.9 8 Oeste 14 Oeste 0 -- -- 78
2020-01-09 10:00:00 9.4 8 Oeste 13 Oeste 0 -- -- 88
2020-01-09 09:00:00 7.7 3 Noroeste 6 Noroeste 0 -- -- 92
2020-01-09 08:00:00 8.6 3 Noroeste 6 Oeste 0 -- -- 92
2020-01-09 07:00:00 8.8 3 Noroeste 9 Oeste 0 -- -- 91
2020-01-09 06:00:00 9.1 4 Oeste 10 Oeste 0 -- -- 90
2020-01-09 05:00:00 9.2 5 Oeste 8 Oeste 0 -- -- 91
2020-01-09 04:00:00 9.1 4 Oeste 10 Oeste 0 -- -- 92
2020-01-09 03:00:00 8.5 3 Oeste 6 Noroeste 0 -- -- 95
2020-01-09 02:00:00 7.7 0 Calma 4 Noroeste 0 -- -- 94
2020-01-09 01:00:00 7.8 0 Calma 3 Oeste 0 -- -- 94
2020-01-09 00:00:00 7.8 0 Calma 4 Oeste 0 -- -- 92
2020-01-08 23:00:00 9.4 3 Oeste 9 Sudoeste 0 -- -- 90
2020-01-08 22:00:00 10.2 6 Sudoeste 9 Sudoeste 0 -- -- 92
2020-01-08 21:00:00 9.7 2 Noroeste 5 Oeste 0 -- -- 91
2020-01-08 20:00:00 10.5 3 Este 9 Este 0 -- -- 89
2020-01-08 19:00:00 10.8 5 Sudeste 7 Este 0 -- -- 88
2020-01-08 18:00:00 11.8 3 Este 9 Nordeste 0 -- -- 83
2020-01-08 17:00:00 13.6 6 Este 12 Nordeste 0 -- -- 77
2020-01-08 16:00:00 14.1 8 Este 15 Nordeste 0 -- -- 77
2020-01-08 15:00:00 14.2 9 Nordeste 18 Nordeste 0 -- -- 80
2020-01-08 14:00:00 14.2 10 Este 17 Este 0 -- -- 77
2020-01-08 13:00:00 13.6 6 Este 13 Este 0 -- -- 76
2020-01-08 12:00:00 11.2 6 Este 10 Nordeste 0 -- -- 75
2020-01-08 11:00:00 7.8 4 Sudoeste 6 Oeste 0 -- -- 83
2020-01-08 10:00:00 5.3 3 Noroeste 13 Sudoeste 0 -- -- 95
2020-01-08 09:00:00 2.8 3 Sudoeste 7 Sudoeste 0 -- -- 97
2020-01-08 08:00:00 2.6 0 Calma 6 Oeste 0 -- -- 96
2020-01-08 07:00:00 3.5 5 Oeste 11 Sudoeste 0 -- -- 96
2020-01-08 06:00:00 3.5 3 Sur 4 Noroeste 0.2 -- -- 96
2020-01-08 05:00:00 4.4 0 Calma 6 Oeste 0 -- -- 95
2020-01-08 04:00:00 5 5 Oeste 6 Oeste 0 -- -- 95
2020-01-08 03:00:00 5.6 3 Oeste 10 Sudoeste 0 -- -- 95
2020-01-08 02:00:00 5.9 3 Oeste 6 Oeste 0 -- -- 95
2020-01-08 01:00:00 6.6 4 Oeste 8 Oeste 0 -- -- 94
2020-01-08 00:00:00 7.6 5 Sudoeste 9 Oeste 0 -- -- 94
2020-01-07 23:00:00 8.1 5 Oeste 9 Sudoeste 0 -- -- 93
2020-01-07 22:00:00 8.8 5 Sudoeste 6 Sudoeste 0 -- -- 92
2020-01-07 21:00:00 9.8 0 Calma 18 Sur 0 -- -- 86
2020-01-07 20:00:00 11.6 11 Sur 18 Sur 0 -- -- 85
2020-01-07 19:00:00 12.1 10 Sur 17 Sur 0 -- -- 86
2020-01-07 18:00:00 12.4 10 Sur 18 Sudeste 0 -- -- 83
2020-01-07 17:00:00 13.8 8 Sudeste 16 Sudeste 0 -- -- 75
2020-01-07 16:00:00 15.7 7 Sudeste 14 Sudeste 0 -- -- 64
2020-01-07 15:00:00 15.9 4 Noroeste 11 Noroeste 0 -- -- 60
2020-01-07 14:00:00 14.5 4 Noroeste 9 Oeste 0 -- -- 68
2020-01-07 13:00:00 12.9 5 Oeste 10 Oeste 0 -- -- 76
2020-01-07 12:00:00 11.1 5 Oeste 9 Oeste 0 -- -- 77
2020-01-07 11:00:00 8 5 Oeste 13 Oeste 0 -- -- 81
2020-01-07 10:00:00 5.5 6 Oeste 13 Sudoeste 0 -- -- 88
2020-01-07 09:00:00 4 8 Sudoeste 13 Sudoeste 0 -- -- 91
2020-01-07 08:00:00 3.5 5 Oeste 9 Oeste 0 -- -- 93
2020-01-07 07:00:00 3.3 3 Oeste 7 Sudoeste 0 -- -- 93
2020-01-07 06:00:00 4.1 4 Oeste 11 Sudoeste 0 -- -- 93
2020-01-07 05:00:00 5.2 8 Sudoeste 12 Oeste 0 -- -- 93
2020-01-07 04:00:00 5.5 5 Oeste 11 Sudoeste 0 -- -- 93
2020-01-07 03:00:00 5.4 5 Sudoeste 7 Sudoeste 0 -- -- 94
2020-01-07 02:00:00 6 4 Oeste 8 Sudoeste 0 -- -- 93
2020-01-07 01:00:00 6.6 4 Sudoeste 6 Oeste 0 -- -- 93
2020-01-07 00:00:00 6.9 4 Sudoeste 6 Oeste 0 -- -- 92
2020-01-06 23:00:00 7.6 3 Oeste 7 Sudoeste 0 -- -- 91
2020-01-06 22:00:00 8.5 4 Sudoeste 6 Sudoeste 0 -- -- 91
2020-01-06 21:00:00 9.4 0 Calma 18 Sur 0 -- -- 85
2020-01-06 20:00:00 11.7 10 Sur 17 Sudeste 0 -- -- 83
2020-01-06 19:00:00 11.9 9 Sur 15 Sur 0 -- -- 81
2020-01-06 18:00:00 12.3 9 Sur 14 Sur 0 -- -- 77
2020-01-06 17:00:00 13.4 7 Sudeste 15 Sudeste 0 -- -- 72
2020-01-06 16:00:00 14.9 8 Sudeste 12 Este 0 -- -- 66
2020-01-06 15:00:00 15.8 4 Sudeste 12 Sudeste 0 -- -- 62
2020-01-06 14:00:00 14.7 5 Sudeste 12 Oeste 0 -- -- 65
2020-01-06 13:00:00 12.8 6 Sudoeste 14 Oeste 0 -- -- 63
2020-01-06 12:00:00 10.4 10 Oeste 14 Oeste 0 -- -- 72
2020-01-06 11:00:00 7.7 7 Oeste 10 Oeste 0 -- -- 80
2020-01-06 10:00:00 5.4 4 Noroeste 9 Oeste 0 -- -- 90